createdAt,value
2022-08-03T00:01:47.518Z,20.40
2022-08-03T00:04:16.185Z,20.40
2022-08-03T00:06:46.200Z,20.40
2022-08-03T00:09:14.910Z,20.30
2022-08-03T00:11:43.453Z,20.30
2022-08-03T00:14:11.979Z,20.30
2022-08-03T00:16:40.571Z,20.30
2022-08-03T00:19:09.155Z,20.20
2022-08-03T00:21:37.964Z,20.20
2022-08-03T00:24:08.527Z,20.20
2022-08-03T00:26:37.077Z,20.20
2022-08-03T00:29:05.669Z,20.20
2022-08-03T00:31:43.036Z,20.20
2022-08-03T00:34:57.216Z,20.10
2022-08-03T00:37:11.555Z,20.10
2022-08-03T00:39:43.484Z,20.10
2022-08-03T00:42:12.147Z,20.00
2022-08-03T00:44:41.777Z,20.00
2022-08-03T00:47:11.301Z,19.90
2022-08-03T00:49:41.329Z,19.90
2022-08-03T00:52:10.851Z,19.90
2022-08-03T00:54:41.553Z,19.90
2022-08-03T00:57:10.356Z,19.90
2022-08-03T00:59:39.729Z,19.90
2022-08-03T01:02:09.255Z,19.80
2022-08-03T01:04:38.031Z,19.80
2022-08-03T01:07:17.515Z,19.80
2022-08-03T01:10:01.939Z,19.80
2022-08-03T01:12:38.077Z,19.70
2022-08-03T01:15:12.296Z,19.70
2022-08-03T01:17:50.667Z,19.70
2022-08-03T01:20:21.950Z,19.60
2022-08-03T01:23:11.763Z,19.60
2022-08-03T01:25:56.968Z,19.50
2022-08-03T01:28:39.797Z,19.50
2022-08-03T01:31:12.601Z,19.50
2022-08-03T01:33:45.123Z,19.40
2022-08-03T01:36:17.075Z,19.40
2022-08-03T01:38:50.447Z,19.30
2022-08-03T01:41:22.868Z,19.30
2022-08-03T01:44:28.606Z,19.30
2022-08-03T01:46:47.933Z,19.30
2022-08-03T01:49:18.642Z,19.20
2022-08-03T01:51:57.888Z,19.20
2022-08-03T01:54:36.848Z,19.10
2022-08-03T01:57:06.073Z,19.10
2022-08-03T01:59:37.486Z,19.20
2022-08-03T02:02:27.811Z,19.10
2022-08-03T02:05:00.091Z,19.10
2022-08-03T02:07:30.450Z,19.10
2022-08-03T02:10:00.683Z,19.10
2022-08-03T02:12:32.360Z,19.10
2022-08-03T02:15:03.128Z,19.10
2022-08-03T02:17:39.319Z,18.90
2022-08-03T02:20:12.242Z,18.90
2022-08-03T02:22:42.450Z,18.90
2022-08-03T02:25:12.121Z,18.90
2022-08-03T02:27:45.825Z,18.90
2022-08-03T02:30:15.463Z,18.90
2022-08-03T02:32:50.298Z,18.90
2022-08-03T02:35:22.168Z,18.80
2022-08-03T02:37:54.574Z,18.80
2022-08-03T02:40:25.808Z,18.70
2022-08-03T02:43:00.350Z,18.70
2022-08-03T02:45:29.915Z,18.70
2022-08-03T02:48:03.994Z,18.70
2022-08-03T02:50:35.132Z,18.80
2022-08-03T02:53:05.777Z,18.80
2022-08-03T02:55:43.194Z,18.80
2022-08-03T02:58:18.484Z,18.70
2022-08-03T03:00:47.493Z,18.70
2022-08-03T03:03:17.646Z,18.60
2022-08-03T03:05:55.015Z,18.60
2022-08-03T03:08:28.709Z,18.60
2022-08-03T03:11:00.531Z,18.60
2022-08-03T03:13:31.353Z,18.60
2022-08-03T03:16:02.533Z,18.60
2022-08-03T03:18:33.629Z,18.50
2022-08-03T03:21:03.865Z,18.50
2022-08-03T03:23:36.581Z,18.50
2022-08-03T03:26:06.159Z,18.50
2022-08-03T03:28:37.001Z,18.50
2022-08-03T03:31:06.438Z,18.50
2022-08-03T03:33:37.564Z,18.40
2022-08-03T03:36:07.606Z,18.40
2022-08-03T03:38:36.473Z,18.40
2022-08-03T03:41:06.172Z,18.40
2022-08-03T03:43:35.178Z,18.40
2022-08-03T03:46:03.942Z,18.40
2022-08-03T03:48:33.926Z,18.40
2022-08-03T03:51:04.291Z,18.40
2022-08-03T03:53:33.007Z,18.40
2022-08-03T03:56:03.115Z,18.40
2022-08-03T03:58:33.617Z,18.40
2022-08-03T04:01:02.730Z,18.40
2022-08-03T04:03:31.603Z,18.40
2022-08-03T04:06:17.722Z,18.40
2022-08-03T04:09:05.756Z,18.40
2022-08-03T04:11:40.572Z,18.40
2022-08-03T04:14:13.204Z,18.40
2022-08-03T04:16:44.477Z,18.40
2022-08-03T04:19:21.166Z,18.40
2022-08-03T04:21:53.503Z,18.40
2022-08-03T04:24:31.703Z,18.40
2022-08-03T04:27:02.039Z,18.50
2022-08-03T04:29:34.759Z,18.50
2022-08-03T04:32:06.554Z,18.50
2022-08-03T04:34:35.222Z,18.60
2022-08-03T04:37:08.239Z,18.60
2022-08-03T04:39:40.100Z,18.60
2022-08-03T04:42:12.111Z,18.60
2022-08-03T04:44:43.152Z,18.60
2022-08-03T04:47:11.831Z,18.70
2022-08-03T04:49:41.186Z,18.80
2022-08-03T04:52:10.941Z,18.80
2022-08-03T04:54:50.628Z,18.90
2022-08-03T04:57:22.739Z,18.90
2022-08-03T05:00:02.597Z,18.90
2022-08-03T05:02:32.727Z,19.00
2022-08-03T05:05:01.738Z,19.10
2022-08-03T05:07:36.182Z,19.10
2022-08-03T05:10:16.059Z,19.20
2022-08-03T05:12:46.781Z,19.20
2022-08-03T05:15:15.942Z,19.30
2022-08-03T05:17:44.703Z,19.40
2022-08-03T05:20:13.866Z,19.40
2022-08-03T05:22:46.708Z,19.50
2022-08-03T05:25:17.421Z,19.50
2022-08-03T05:27:48.656Z,19.60
2022-08-03T05:30:27.288Z,19.60
2022-08-03T05:33:03.261Z,19.60
2022-08-03T05:35:56.847Z,19.70
2022-08-03T05:38:24.049Z,19.70
2022-08-03T05:41:20.202Z,19.70
2022-08-03T05:43:48.554Z,19.80
2022-08-03T05:46:18.516Z,19.80
2022-08-03T05:48:47.098Z,19.80
2022-08-03T05:51:16.003Z,19.80
2022-08-03T05:53:45.103Z,19.80
2022-08-03T05:56:16.618Z,19.80
2022-08-03T05:58:46.792Z,19.80
2022-08-03T06:01:16.139Z,19.90
2022-08-03T06:03:44.921Z,19.90
2022-08-03T06:06:13.539Z,19.90
2022-08-03T06:08:42.554Z,20.00
2022-08-03T06:11:11.587Z,20.00
2022-08-03T06:13:42.029Z,20.10
2022-08-03T06:16:11.241Z,20.10
2022-08-03T06:18:40.496Z,20.10
2022-08-03T06:21:15.170Z,20.10
2022-08-03T06:23:54.178Z,20.20
2022-08-03T06:26:26.043Z,20.20
2022-08-03T06:28:56.129Z,20.20
2022-08-03T06:31:32.741Z,20.30
2022-08-03T06:34:34.262Z,20.40
2022-08-03T06:36:53.013Z,20.40
2022-08-03T06:39:23.500Z,20.50
2022-08-03T06:41:53.932Z,20.60
2022-08-03T06:44:24.050Z,20.70
2022-08-03T06:46:53.046Z,20.70
2022-08-03T06:49:21.857Z,20.80
2022-08-03T06:52:05.970Z,20.80
2022-08-03T06:54:36.849Z,20.90
2022-08-03T06:57:08.230Z,20.90
2022-08-03T07:00:10.468Z,21.00
2022-08-03T07:02:28.382Z,21.10
2022-08-03T07:05:00.093Z,21.20
2022-08-03T07:07:28.803Z,21.20
2022-08-03T07:09:58.374Z,21.20
2022-08-03T07:12:28.685Z,21.30
2022-08-03T07:15:02.146Z,21.40
2022-08-03T07:17:32.973Z,21.50
2022-08-03T07:20:02.423Z,21.50
2022-08-03T07:22:31.237Z,21.60
2022-08-03T07:24:59.989Z,21.70
2022-08-03T07:27:29.662Z,21.90
2022-08-03T07:30:00.418Z,21.90
2022-08-03T07:32:31.515Z,22.00
2022-08-03T07:35:01.517Z,22.00
2022-08-03T07:37:31.250Z,22.00
2022-08-03T07:40:00.490Z,22.10
2022-08-03T07:42:29.501Z,22.10
2022-08-03T07:45:00.291Z,22.20
2022-08-03T07:47:35.425Z,22.20
2022-08-03T07:50:08.732Z,22.30
2022-08-03T07:52:50.591Z,22.40
2022-08-03T07:55:20.632Z,22.30
2022-08-03T07:58:00.049Z,22.40
2022-08-03T08:00:30.474Z,22.40
2022-08-03T08:02:59.454Z,22.60
2022-08-03T08:05:29.575Z,22.70
2022-08-03T08:07:58.319Z,22.80
2022-08-03T08:10:27.354Z,22.90
2022-08-03T08:12:56.982Z,22.90
2022-08-03T08:15:26.087Z,22.90
2022-08-03T08:17:57.791Z,22.90
2022-08-03T08:20:31.827Z,22.90
2022-08-03T08:23:02.016Z,23.00
2022-08-03T08:25:33.093Z,23.10
2022-08-03T08:28:31.872Z,23.30
2022-08-03T08:30:52.575Z,23.40
2022-08-03T08:33:23.967Z,23.50
2022-08-03T08:35:54.673Z,23.60
2022-08-03T08:38:23.796Z,23.70
2022-08-03T08:40:52.475Z,23.90
2022-08-03T08:43:21.103Z,24.10
2022-08-03T08:45:51.708Z,24.20
2022-08-03T08:48:25.783Z,24.30
2022-08-03T08:50:55.516Z,24.40
2022-08-03T08:53:27.650Z,24.40
2022-08-03T08:56:00.979Z,24.50
2022-08-03T08:58:38.154Z,24.70
2022-08-03T09:01:07.813Z,24.90
2022-08-03T09:03:38.017Z,25.10
2022-08-03T09:06:07.572Z,25.10
2022-08-03T09:08:36.351Z,25.20
2022-08-03T09:11:05.146Z,25.40
2022-08-03T09:13:35.460Z,25.60
2022-08-03T09:16:22.760Z,25.60
2022-08-03T09:18:55.699Z,25.70
2022-08-03T09:21:34.255Z,25.90
2022-08-03T09:24:07.069Z,26.10
2022-08-03T09:26:39.074Z,26.10
2022-08-03T09:29:14.619Z,26.10
2022-08-03T09:31:46.237Z,26.30
2022-08-03T09:34:17.362Z,26.40
2022-08-03T09:36:47.529Z,26.50
2022-08-03T09:39:17.750Z,26.70
2022-08-03T09:41:48.190Z,26.90
2022-08-03T09:44:25.470Z,27.00
2022-08-03T09:46:57.354Z,27.10
2022-08-03T09:49:27.619Z,27.30
2022-08-03T09:52:31.676Z,27.40
2022-08-03T09:54:51.966Z,27.60
2022-08-03T09:57:26.129Z,27.90
2022-08-03T10:00:04.733Z,28.10
2022-08-03T10:02:36.685Z,28.10
2022-08-03T10:05:08.383Z,28.40
2022-08-03T10:07:45.893Z,28.50
2022-08-03T10:10:30.176Z,28.50
2022-08-03T10:13:02.256Z,28.50
2022-08-03T10:16:22.238Z,28.50
2022-08-03T10:18:19.876Z,28.60
2022-08-03T10:20:53.464Z,28.80
2022-08-03T10:23:24.980Z,29.00
2022-08-03T10:26:01.649Z,29.20
2022-08-03T10:28:35.847Z,29.30
2022-08-03T10:31:08.371Z,29.30
2022-08-03T10:33:51.786Z,29.40
2022-08-03T10:36:25.834Z,29.60
2022-08-03T10:38:57.088Z,29.60
2022-08-03T10:41:32.514Z,29.60
2022-08-03T10:44:05.531Z,29.60
2022-08-03T10:46:36.082Z,29.70
2022-08-03T10:49:05.760Z,29.70
2022-08-03T10:51:36.848Z,29.80
2022-08-03T10:54:05.629Z,29.90
2022-08-03T10:56:58.418Z,30.10
2022-08-03T11:00:05.955Z,30.20
2022-08-03T11:03:17.071Z,30.50
2022-08-03T11:05:46.954Z,30.70
2022-08-03T11:08:32.010Z,30.90
2022-08-03T11:11:03.293Z,31.10
2022-08-03T11:13:34.001Z,31.10
2022-08-03T11:16:21.968Z,31.10
2022-08-03T11:19:01.050Z,30.90
2022-08-03T11:21:53.912Z,31.00
2022-08-03T11:24:59.821Z,30.90
2022-08-03T11:27:32.871Z,31.20
2022-08-03T11:30:05.382Z,31.00
2022-08-03T11:33:03.614Z,31.00
2022-08-03T11:35:33.752Z,31.40
2022-08-03T11:38:10.805Z,31.60
2022-08-03T11:40:44.666Z,31.20
2022-08-03T11:43:47.684Z,31.30
2022-08-03T11:46:28.236Z,31.80
2022-08-03T11:49:09.781Z,31.90
2022-08-03T11:51:40.499Z,31.80
2022-08-03T11:54:09.600Z,32.00
2022-08-03T11:56:48.891Z,31.80
2022-08-03T11:59:22.277Z,31.90
2022-08-03T12:01:51.927Z,32.20
2022-08-03T12:04:20.576Z,32.60
2022-08-03T12:07:01.903Z,32.90
2022-08-03T12:09:30.525Z,32.80
2022-08-03T12:12:00.469Z,32.20
2022-08-03T12:14:48.420Z,31.80
2022-08-03T12:17:20.259Z,31.80
2022-08-03T12:19:49.137Z,32.20
2022-08-03T12:22:18.011Z,32.40
2022-08-03T12:24:47.640Z,32.80
2022-08-03T12:27:25.826Z,32.90
2022-08-03T12:29:58.932Z,32.90
2022-08-03T12:32:28.362Z,33.30
2022-08-03T12:35:01.339Z,33.70
2022-08-03T12:37:31.024Z,33.80
2022-08-03T12:40:09.538Z,33.80
2022-08-03T12:42:40.830Z,33.90
2022-08-03T12:45:25.745Z,33.60
2022-08-03T12:47:56.300Z,33.60
2022-08-03T12:50:26.525Z,33.60
2022-08-03T12:52:56.303Z,33.30
2022-08-03T12:55:27.670Z,33.30
2022-08-03T12:57:56.387Z,33.10
2022-08-03T13:00:29.365Z,33.50
2022-08-03T13:03:38.494Z,33.60
2022-08-03T13:05:52.605Z,33.50
2022-08-03T13:08:22.263Z,33.70
2022-08-03T13:10:51.071Z,33.80
2022-08-03T13:13:20.844Z,33.80
2022-08-03T13:15:52.271Z,33.50
2022-08-03T13:18:20.971Z,33.80
2022-08-03T13:20:49.800Z,34.00
2022-08-03T13:23:22.262Z,33.80
2022-08-03T13:25:55.835Z,33.70
2022-08-03T13:28:24.941Z,34.10
2022-08-03T13:30:55.526Z,34.50
2022-08-03T13:33:24.249Z,34.60
2022-08-03T13:35:53.044Z,34.80
2022-08-03T13:38:21.837Z,34.40
2022-08-03T13:40:56.049Z,34.30
2022-08-03T13:43:24.801Z,34.60
2022-08-03T13:45:57.787Z,34.70
2022-08-03T13:48:36.944Z,33.80
2022-08-03T13:51:21.604Z,33.30
2022-08-03T13:53:52.292Z,33.40
2022-08-03T13:56:21.077Z,33.10
2022-08-03T13:58:49.711Z,33.60
2022-08-03T14:01:34.406Z,34.40
2022-08-03T14:04:15.826Z,34.40
2022-08-03T14:06:51.201Z,34.00
2022-08-03T14:09:19.887Z,33.90
2022-08-03T14:12:07.023Z,33.90
2022-08-03T14:14:37.070Z,34.70
2022-08-03T14:17:07.223Z,34.60
2022-08-03T14:19:40.572Z,34.30
2022-08-03T14:22:22.785Z,34.10
2022-08-03T14:24:51.603Z,34.40
2022-08-03T14:27:21.834Z,34.30
2022-08-03T14:29:50.667Z,34.70
2022-08-03T14:32:20.882Z,34.70
2022-08-03T14:34:49.552Z,34.30
2022-08-03T14:37:18.413Z,34.00
2022-08-03T14:40:04.202Z,34.10
2022-08-03T14:42:33.014Z,33.80
2022-08-03T14:45:05.976Z,33.50
2022-08-03T14:50:28.401Z,34.20
2022-08-03T14:50:39.841Z,34.40
2022-08-03T14:53:09.640Z,33.80
2022-08-03T14:55:49.399Z,34.20
2022-08-03T14:58:21.503Z,34.20
2022-08-03T15:00:51.765Z,34.50
2022-08-03T15:03:23.738Z,34.60
2022-08-03T15:05:53.286Z,34.40
2022-08-03T15:08:22.377Z,34.30
2022-08-03T15:10:51.327Z,34.30
2022-08-03T15:13:20.858Z,33.80
2022-08-03T15:15:51.837Z,33.70
2022-08-03T15:18:22.043Z,33.50
2022-08-03T15:20:51.027Z,33.80
2022-08-03T15:23:20.247Z,34.40
2022-08-03T15:26:31.813Z,34.00
2022-08-03T15:28:38.003Z,33.50
2022-08-03T15:31:07.509Z,33.90
2022-08-03T15:33:37.999Z,34.10
2022-08-03T15:36:06.860Z,34.30
2022-08-03T15:38:35.531Z,34.80
2022-08-03T15:41:04.306Z,34.60
2022-08-03T15:43:33.227Z,34.80
2022-08-03T15:48:57.657Z,34.10
2022-08-03T15:51:26.337Z,33.80
2022-08-03T15:53:56.025Z,34.20
2022-08-03T15:56:24.920Z,34.30
2022-08-03T15:59:03.903Z,34.30
2022-08-03T16:01:41.851Z,34.50
2022-08-03T16:04:12.102Z,34.00
2022-08-03T16:06:40.783Z,33.90
2022-08-03T16:09:22.922Z,34.30
2022-08-03T16:11:58.758Z,34.20
2022-08-03T16:14:32.369Z,33.70
2022-08-03T16:17:05.357Z,33.50
2022-08-03T16:19:35.683Z,33.40
2022-08-03T16:22:04.428Z,33.70
2022-08-03T16:24:33.062Z,34.00
2022-08-03T16:27:01.742Z,34.10
2022-08-03T16:29:30.614Z,34.40
2022-08-03T16:32:00.558Z,34.60
2022-08-03T16:34:29.290Z,34.20
2022-08-03T16:37:04.833Z,34.00
2022-08-03T16:39:45.310Z,34.00
2022-08-03T16:42:13.881Z,33.80
2022-08-03T16:44:42.943Z,33.30
2022-08-03T16:47:21.758Z,33.10
2022-08-03T16:49:53.787Z,33.00
2022-08-03T16:52:27.405Z,32.70
2022-08-03T16:54:56.184Z,32.80
2022-08-03T16:57:59.440Z,32.60
2022-08-03T17:00:32.943Z,33.60
2022-08-03T17:03:19.094Z,33.70
2022-08-03T17:05:50.275Z,33.20
2022-08-03T17:08:26.807Z,32.90
2022-08-03T17:10:56.920Z,33.10
2022-08-03T17:13:38.740Z,33.30
2022-08-03T17:16:12.059Z,33.90
2022-08-03T17:18:48.462Z,34.10
2022-08-03T17:21:21.174Z,34.60
2022-08-03T17:23:58.422Z,34.80
2022-08-03T17:26:30.464Z,35.20
2022-08-03T17:29:11.248Z,35.00
2022-08-03T17:31:48.982Z,35.10
2022-08-03T17:34:19.085Z,35.60
2022-08-03T17:37:03.636Z,35.20
2022-08-03T17:42:31.079Z,34.50
2022-08-03T17:45:03.601Z,34.60
2022-08-03T17:47:41.951Z,34.50
2022-08-03T17:50:23.280Z,33.60
2022-08-03T17:56:40.679Z,33.10
2022-08-03T17:59:08.220Z,32.90
2022-08-03T18:02:11.590Z,32.50
2022-08-03T18:05:00.925Z,32.10
2022-08-03T18:07:41.189Z,31.90
2022-08-03T18:10:15.191Z,31.80
2022-08-03T18:12:53.470Z,31.70
2022-08-03T18:15:30.411Z,31.20
2022-08-03T18:18:10.502Z,31.10
2022-08-03T18:20:42.389Z,30.80
2022-08-03T18:23:25.538Z,30.70
2022-08-03T18:26:05.617Z,30.70
2022-08-03T18:28:38.491Z,30.60
2022-08-03T18:31:11.650Z,30.50
2022-08-03T18:34:19.087Z,30.30
2022-08-03T18:36:32.985Z,30.10
2022-08-03T18:39:04.100Z,29.90
2022-08-03T18:41:34.980Z,29.70
2022-08-03T18:44:09.433Z,29.50
2022-08-03T18:47:07.250Z,29.40
2022-08-03T18:49:54.258Z,29.30
2022-08-03T18:52:28.707Z,29.10
2022-08-03T18:55:08.455Z,29.00
2022-08-03T18:57:53.320Z,29.00
2022-08-03T19:00:33.508Z,28.90
2022-08-03T19:03:20.613Z,28.80
2022-08-03T19:06:02.505Z,28.70
2022-08-03T19:08:45.271Z,28.50
2022-08-03T19:11:28.282Z,28.40
2022-08-03T19:13:59.282Z,28.30
2022-08-03T19:16:35.701Z,28.20
2022-08-03T19:19:11.197Z,28.20
2022-08-03T19:21:45.212Z,28.10
2022-08-03T19:24:14.905Z,28.00
2022-08-03T19:29:57.870Z,27.70
2022-08-03T19:32:24.620Z,27.50
2022-08-03T19:34:53.517Z,27.30
2022-08-03T19:37:25.800Z,27.10
2022-08-03T19:40:10.460Z,27.00
2022-08-03T19:42:45.475Z,26.90
2022-08-03T19:45:18.446Z,26.90
2022-08-03T19:47:53.879Z,26.90
2022-08-03T19:50:22.603Z,26.80
2022-08-03T19:52:51.971Z,26.60
2022-08-03T19:55:20.803Z,26.50
2022-08-03T19:57:50.822Z,26.40
2022-08-03T20:00:26.429Z,26.30
2022-08-03T20:03:01.301Z,26.20
2022-08-03T20:05:30.336Z,26.10
2022-08-03T20:08:14.566Z,26.00
2022-08-03T20:10:43.253Z,25.90
2022-08-03T20:13:19.279Z,25.90
2022-08-03T20:15:48.635Z,25.90
2022-08-03T20:18:23.533Z,25.90
2022-08-03T20:20:55.056Z,25.80
2022-08-03T20:23:26.958Z,25.70
2022-08-03T20:26:07.749Z,25.70
2022-08-03T20:28:50.366Z,25.60
2022-08-03T20:31:25.182Z,25.60
2022-08-03T20:34:03.191Z,25.60
2022-08-03T20:36:31.949Z,25.50
2022-08-03T20:39:00.991Z,25.50
2022-08-03T20:41:30.744Z,25.30
2022-08-03T20:44:01.827Z,25.20
2022-08-03T20:46:46.520Z,25.20
2022-08-03T20:49:22.955Z,25.20
2022-08-03T20:51:53.617Z,25.00
2022-08-03T20:54:29.570Z,24.90
2022-08-03T20:57:00.707Z,24.90
2022-08-03T20:59:46.993Z,24.80
2022-08-03T21:02:30.096Z,24.70
2022-08-03T21:05:03.352Z,24.70
2022-08-03T21:07:45.479Z,24.70
2022-08-03T21:10:31.594Z,24.70
2022-08-03T21:12:55.594Z,33.30
2022-08-03T21:13:02.203Z,27.90
2022-08-03T21:13:16.359Z,24.60
2022-08-03T21:16:06.755Z,24.60
2022-08-03T21:18:46.067Z,24.50
2022-08-03T21:21:20.112Z,24.40
2022-08-03T21:23:52.587Z,24.30
2022-08-03T21:26:22.984Z,24.20
2022-08-03T21:28:53.886Z,24.20
2022-08-03T21:31:26.591Z,24.10
2022-08-03T21:33:57.560Z,24.10
2022-08-03T21:36:29.919Z,24.10
2022-08-03T21:38:59.546Z,24.00
2022-08-03T21:41:30.013Z,24.00
2022-08-03T21:43:59.361Z,24.00
2022-08-03T21:46:30.514Z,23.90
2022-08-03T21:50:04.980Z,23.90
2022-08-03T21:51:55.177Z,23.70
2022-08-03T21:54:30.869Z,23.70
2022-08-03T21:57:04.159Z,23.70
2022-08-03T21:59:37.093Z,23.70
2022-08-03T22:02:07.069Z,23.70
2022-08-03T22:04:55.958Z,23.70
2022-08-03T22:07:29.853Z,23.60
2022-08-03T22:10:00.259Z,23.60
2022-08-03T22:12:31.104Z,23.50
2022-08-03T22:15:02.371Z,23.40
2022-08-03T22:17:54.850Z,23.30
2022-08-03T22:20:22.994Z,23.40
2022-08-03T22:22:56.734Z,23.40
2022-08-03T22:25:29.921Z,23.40
2022-08-03T22:28:00.780Z,23.20
2022-08-03T22:30:29.676Z,23.10
2022-08-03T22:32:59.016Z,23.10
2022-08-03T22:35:28.524Z,23.10
2022-08-03T22:37:59.924Z,23.10
2022-08-03T22:40:29.074Z,23.10
2022-08-03T22:42:58.520Z,23.10
2022-08-03T22:46:07.498Z,23.00
2022-08-03T22:48:18.025Z,23.00
2022-08-03T22:50:47.551Z,22.90
2022-08-03T22:53:21.588Z,22.80
2022-08-03T22:55:51.713Z,22.70
2022-08-03T22:58:21.874Z,22.70
2022-08-03T23:00:56.927Z,22.70
2022-08-03T23:03:58.674Z,22.80
2022-08-03T23:06:20.218Z,22.80
2022-08-03T23:08:51.491Z,22.70
2022-08-03T23:11:20.403Z,22.50
2022-08-03T23:13:54.041Z,22.40
2022-08-03T23:16:29.046Z,22.40
2022-08-03T23:18:59.555Z,22.30
2022-08-03T23:22:00.218Z,22.30
2022-08-03T23:24:26.185Z,22.20
2022-08-03T23:26:59.475Z,22.30
2022-08-03T23:29:30.360Z,22.30
2022-08-03T23:31:59.743Z,22.20
2022-08-03T23:34:46.591Z,22.00
2022-08-03T23:37:16.081Z,21.90
2022-08-03T23:39:48.082Z,21.90
2022-08-03T23:42:18.917Z,21.90
2022-08-03T23:44:48.001Z,22.00
2022-08-03T23:47:16.570Z,22.00
2022-08-03T23:49:45.617Z,22.00
2022-08-03T23:52:27.256Z,21.90
2022-08-03T23:55:13.097Z,21.70
2022-08-03T23:57:59.228Z,21.70
